This is the latest recevied weather packets stored in our database for station/object OE-11144. If no packets are shown the sender has not sent any weather packets the latest 10 day(s).
| Time | Temp. | Humidity | Pressure | Rain* | Wind** | Luminosity | Snow |
|---|---|---|---|---|---|---|---|
| 1788139529 | 14.44° C | 92% | 1017 hPa | 0 mm | - | - | - |
| 1788138701 | 15° C | 93% | 1016.9 hPa | 0 mm | - | - | - |
| 1788138329 | 15° C | 94% | 1016.9 hPa | 0 mm | - | - | - |
| 1788137729 | 14.44° C | 92% | 1017.2 hPa | 0 mm | - | - | - |
| 1788136901 | 15° C | 93% | 1017 hPa | 0 mm | - | - | - |
| 1788136529 | 14.44° C | 92% | 1017.2 hPa | 0 mm | - | - | - |
| 1788135929 | 15° C | 93% | 1017.2 hPa | 0 mm | - | - | - |
| 1788135102 | 15.56° C | 91% | 1017 hPa | 0 mm | - | - | - |
| 1788134729 | 15.56° C | 92% | 1016.8 hPa | 0 mm | - | - | - |
| 1788134129 | 15.56° C | 92% | 1016.6 hPa | 0 mm | - | - | - |
| 1788133540 | 15.56° C | 92% | 1016.6 hPa | 0 mm | - | - | - |
| 1788132928 | 16.11° C | 91% | 1016.6 hPa | 0 mm | - | - | - |
| 1788132328 | 16.11° C | 89% | 1016.6 hPa | 0 mm | - | - | - |
| 1788131729 | 16.11° C | 88% | 1016.5 hPa | 0 mm | - | - | - |
| 1788131129 | 16.11° C | 89% | 1016.6 hPa | 0 mm | - | - | - |
| 1788130529 | 16.67° C | 85% | 1016.4 hPa | 0 mm | - | - | - |
| 1788129702 | 16.67° C | 85% | 1016.3 hPa | 0 mm | - | - | - |
| 1788129329 | 16.11° C | 87% | 1016.5 hPa | 0 mm | - | - | - |
| 1788128729 | 17.22° C | 83% | 1016.1 hPa | 0 mm | - | - | - |
| 1788127903 | 18.33° C | 78% | 1015.7 hPa | 0 mm | - | - | - |
| 1788127529 | 18.89° C | 75% | 1015.6 hPa | 0 mm | - | - | - |
| 1788126929 | 18.33° C | 78% | 1015.3 hPa | 0 mm | - | - | - |
| 1788126102 | 17.78° C | 81% | 1015.7 hPa | 0 mm | - | - | - |
| 1788125729 | 17.78° C | 85% | 1015.8 hPa | 0 mm | - | - | - |
| 1788125129 | 17.78° C | 85% | 1015.7 hPa | 0 mm | - | - | - |
* Rain latest hour (hover to see other rain measurements)
** Current wind speed in m/s (hover to see current wind gust speed)